createdAt,value
2022-10-19T00:01:55.262Z,1018.806
2022-10-19T00:06:57.814Z,1018.885
2022-10-19T00:12:02.179Z,1018.877
2022-10-19T00:17:04.778Z,1018.812
2022-10-19T00:27:10.194Z,1018.842
2022-10-19T00:32:13.164Z,1018.814
2022-10-19T00:37:15.911Z,1018.808
2022-10-19T06:52:23.303Z,1019.782
2022-10-19T06:57:25.977Z,1019.833
2022-10-19T07:02:28.575Z,1019.862
2022-10-19T07:07:34.446Z,1019.856
2022-10-19T07:12:37.064Z,1019.89
2022-10-19T07:17:39.958Z,1019.902
2022-10-19T07:27:48.875Z,1020.018
2022-10-19T07:32:54.629Z,1019.995
2022-10-19T07:43:02.945Z,1020.062
2022-10-19T07:48:05.413Z,1020.179
2022-10-19T07:53:08.293Z,1020.128
2022-10-19T08:08:16.036Z,1020.283
2022-10-19T08:13:18.426Z,1020.321
2022-10-19T08:18:21.154Z,1020.363
2022-10-19T08:23:23.859Z,1020.403
2022-10-19T08:33:28.818Z,1020.486
2022-10-19T08:38:31.342Z,1020.475
2022-10-19T08:43:33.894Z,1020.51
2022-10-19T08:48:36.835Z,1020.583
2022-10-19T08:53:42.165Z,1020.617
2022-10-19T08:58:45.078Z,1020.52
2022-10-19T09:08:50.765Z,1020.511
2022-10-19T09:14:04.505Z,1020.585
2022-10-19T09:18:56.715Z,1020.637
2022-10-19T09:23:59.337Z,1020.686
2022-10-19T09:29:01.938Z,1020.693
2022-10-19T09:39:07.369Z,1020.849
2022-10-19T09:44:10.052Z,1020.838
2022-10-19T09:49:12.974Z,1020.791
2022-10-19T09:54:18.525Z,1020.882
2022-10-19T09:59:21.331Z,1020.887
2022-10-19T10:04:33.183Z,1020.883
2022-10-19T10:14:38.482Z,1020.945
2022-10-19T10:19:41.238Z,1020.872
2022-10-19T10:24:43.948Z,1020.882
2022-10-19T10:29:46.613Z,1020.852
2022-10-19T10:34:53.001Z,1020.929
2022-10-19T10:39:51.956Z,1021.062
2022-10-19T10:44:55.168Z,1020.997
2022-10-19T10:49:58.361Z,1020.931
2022-10-19T10:55:01.383Z,1020.854
2022-10-19T11:00:04.151Z,1020.971
2022-10-19T11:05:06.555Z,1020.989
2022-10-19T11:10:09.281Z,1020.956
2022-10-19T11:15:11.949Z,1020.922
2022-10-19T11:20:14.899Z,1020.916
2022-10-19T11:25:17.175Z,1020.904
2022-10-19T11:30:19.521Z,1020.801
2022-10-19T11:35:22.419Z,1020.735
2022-10-19T11:40:25.639Z,1020.597
2022-10-19T11:45:28.452Z,1020.654
2022-10-19T11:50:32.310Z,1020.597
2022-10-19T11:55:34.552Z,1020.515
2022-10-19T12:00:40.027Z,1020.502
2022-10-19T12:05:42.110Z,1020.582
2022-10-19T12:10:44.832Z,1020.606
2022-10-19T12:15:47.764Z,1020.583
2022-10-19T12:20:50.583Z,1020.499
2022-10-19T12:25:53.618Z,1020.548
2022-10-19T12:35:58.466Z,1020.55
2022-10-19T12:41:01.066Z,1020.507
2022-10-19T12:46:03.929Z,1020.485
2022-10-19T12:51:06.751Z,1020.382
2022-10-19T12:56:09.642Z,1020.396
2022-10-19T13:01:12.575Z,1020.326
2022-10-19T13:06:15.636Z,1020.313
2022-10-19T13:11:18.306Z,1020.28
2022-10-19T13:16:21.664Z,1020.285
2022-10-19T13:21:24.003Z,1020.23
2022-10-19T13:26:27.294Z,1020.205
2022-10-19T13:31:29.848Z,1020.211
2022-10-19T13:36:32.431Z,1020.132
2022-10-19T13:41:35.143Z,1020.085
2022-10-19T13:46:37.606Z,1020.04
2022-10-19T13:51:40.632Z,1020.049
2022-10-19T13:56:43.349Z,1020.008
2022-10-19T14:01:46.403Z,1020.038
2022-10-19T14:06:48.897Z,1020.016
2022-10-19T14:11:51.506Z,1019.953
2022-10-19T14:16:55.150Z,1019.911
2022-10-19T14:21:57.127Z,1019.875
2022-10-19T14:26:59.681Z,1019.907
2022-10-19T14:32:02.308Z,1019.877
2022-10-19T14:37:05.339Z,1019.918
2022-10-19T14:42:08.248Z,1019.876
2022-10-19T14:47:10.752Z,1019.801
2022-10-19T14:52:13.379Z,1019.802
2022-10-19T14:57:16.130Z,1019.797
2022-10-19T15:02:18.892Z,1019.784
2022-10-19T15:07:21.868Z,1019.744
2022-10-19T15:12:24.379Z,1019.732
2022-10-19T15:17:27.201Z,1019.741
2022-10-19T15:27:32.503Z,1019.784
2022-10-19T15:32:36.039Z,1019.848
2022-10-19T15:37:38.286Z,1019.837
2022-10-19T15:42:41.268Z,1019.785
2022-10-19T15:47:43.953Z,1019.832
2022-10-19T15:52:46.464Z,1019.766
2022-10-19T15:57:49.181Z,1019.803
2022-10-19T16:02:51.787Z,1019.883
2022-10-19T16:07:54.389Z,1019.917
2022-10-19T16:12:57.216Z,1019.933
2022-10-19T16:17:59.824Z,1019.991
2022-10-19T16:23:02.578Z,1019.999
2022-10-19T16:28:05.234Z,1020.05
2022-10-19T16:33:07.729Z,1020.061
2022-10-19T16:38:10.562Z,1020.046
2022-10-19T16:43:13.344Z,1020.129
2022-10-19T16:48:15.902Z,1020.116
2022-10-19T16:53:18.429Z,1020.12
2022-10-19T17:03:26.281Z,1020.251
2022-10-19T17:18:34.323Z,1020.33
2022-10-19T17:23:39.630Z,1020.482
2022-10-19T17:28:42.298Z,1020.452
2022-10-19T17:38:47.664Z,1020.379
2022-10-19T17:43:50.539Z,1020.397
2022-10-19T17:48:53.190Z,1020.404
2022-10-19T17:53:55.807Z,1020.398
2022-10-19T17:58:58.479Z,1020.471
2022-10-19T18:04:00.983Z,1020.435
2022-10-19T18:24:12.861Z,1020.527
2022-10-19T18:29:14.579Z,1020.549
2022-10-19T18:44:29.544Z,1020.571
2022-10-19T18:49:33.449Z,1020.536
2022-10-19T18:54:38.908Z,1020.533
2022-10-19T18:59:41.717Z,1020.556
2022-10-19T19:09:49.945Z,1020.475
2022-10-19T19:14:52.709Z,1020.413
2022-10-19T19:19:58.236Z,1020.435
2022-10-19T19:25:00.991Z,1020.44
2022-10-19T19:40:11.173Z,1020.435
2022-10-19T19:45:13.785Z,1020.312
2022-10-19T19:55:19.273Z,1020.417
2022-10-19T20:10:27.489Z,1020.439
2022-10-19T20:15:29.859Z,1020.549
2022-10-19T20:20:32.624Z,1020.546
2022-10-19T20:30:40.647Z,1020.6
2022-10-19T20:35:43.200Z,1020.559
2022-10-19T20:40:45.917Z,1020.638
2022-10-19T20:45:48.725Z,1020.696
2022-10-19T20:50:51.479Z,1020.714
2022-10-19T21:00:59.568Z,1020.685
2022-10-19T21:06:02.095Z,1020.742
2022-10-19T21:11:04.708Z,1020.76
2022-10-19T21:16:07.493Z,1020.798
2022-10-19T21:21:10.351Z,1020.705
2022-10-19T21:26:13.358Z,1020.662
2022-10-19T21:31:15.872Z,1020.676
2022-10-19T21:36:18.660Z,1020.631
2022-10-19T21:41:23.664Z,1020.613
2022-10-19T21:46:24.494Z,1020.561
2022-10-19T21:56:29.796Z,1020.592
2022-10-19T22:06:35.362Z,1020.492
2022-10-19T22:11:38.149Z,1020.427
2022-10-19T22:16:40.857Z,1020.316
2022-10-19T22:31:48.897Z,1020.163
2022-10-19T22:41:54.403Z,1020.053
2022-10-19T22:46:56.979Z,1020.072
2022-10-19T22:51:59.458Z,1020.017
2022-10-19T22:57:02.208Z,1019.996
2022-10-19T23:02:05.155Z,1019.953
2022-10-19T23:12:13.267Z,1019.939
2022-10-19T23:17:18.579Z,1019.942
2022-10-19T23:27:24.331Z,1019.993
2022-10-19T23:32:26.958Z,1020.024
2022-10-19T23:47:35.172Z,1020.117
2022-10-19T23:52:37.372Z,1020.059
